CAL036 RCTP-KPHX
Flight info
| Callsign | CAL036 |
|---|---|
| Flight time | N/A |
| Altitude | 31000 |
| Route | MOLKA1A MOLKA M750 IMPAL Y755 CARDS DCT HIOTI DCT CBE Y121 SWING Y88 OSPAN/N0499F310 Y88 DAIGO Y886 ADNAP OTR5 KALNA DCT 42N160E 43N170E 43N180E/N0491F330 43N170W 43N160W 43N150W 43N140W/N0479F350 42N130W DCT FOT DCT RBL DCT OAL J92 KADDY DCT WOTRO BRUSR1 |
| Aircraft | B77W/H-SDE1E2E3FGHIJ2J3J5M1P2RWY/LB1D1 |
Departure
| Time | 2026-04-30 18:36 |
|---|---|
| Airport | Taiwan Taoyuan International Airport (RCTP) |
Arrival
| Time | N/A |
|---|---|
| Airport | Phoenix Sky Harbor International Airport (KPHX) |
| Time | Latitude | Longitude | Altitude | Speed | Heading |
|---|---|---|---|---|---|
| 2026-04-30 17:51 | 25.08004 | 121.23168 | 106 ft | 0 kts | 139° |
| 2026-04-30 18:16 | 25.08004 | 121.23167 | 106 ft | 1 kts | 139° |
| 2026-04-30 18:16 | 25.08040 | 121.23134 | 106 ft | 3 kts | 139° |
| 2026-04-30 18:17 | 25.08058 | 121.23116 | 106 ft | 3 kts | 139° |
| 2026-04-30 18:17 | 25.08073 | 121.23102 | 104 ft | 3 kts | 124° |
| 2026-04-30 18:17 | 25.08060 | 121.23066 | 106 ft | 3 kts | 49° |
| 2026-04-30 18:18 | 25.08044 | 121.23046 | 105 ft | 3 kts | 49° |
| 2026-04-30 18:18 | 25.08036 | 121.23036 | 105 ft | 3 kts | 49° |
| 2026-04-30 18:22 | 25.08042 | 121.23044 | 105 ft | 2 kts | 49° |
| 2026-04-30 18:22 | 25.08055 | 121.23060 | 107 ft | 3 kts | 49° |
| 2026-04-30 18:23 | 25.08073 | 121.23083 | 106 ft | 4 kts | 49° |
| 2026-04-30 18:23 | 25.08082 | 121.23095 | 106 ft | 0 kts | 49° |
| 2026-04-30 18:23 | 25.08085 | 121.23099 | 106 ft | 2 kts | 49° |
| 2026-04-30 18:23 | 25.08096 | 121.23113 | 106 ft | 4 kts | 49° |
| 2026-04-30 18:24 | 25.08146 | 121.23155 | 106 ft | 5 kts | 7° |
| 2026-04-30 18:24 | 25.08176 | 121.23140 | 106 ft | 5 kts | 325° |
| 2026-04-30 18:24 | 25.08198 | 121.23110 | 108 ft | 5 kts | 290° |
| 2026-04-30 18:25 | 25.08190 | 121.23071 | 108 ft | 6 kts | 243° |
| 2026-04-30 18:25 | 25.08110 | 121.22963 | 107 ft | 11 kts | 227° |
| 2026-04-30 18:25 | 25.08060 | 121.22899 | 107 ft | 12 kts | 229° |
| 2026-04-30 18:26 | 25.07923 | 121.22724 | 109 ft | 19 kts | 229° |
| 2026-04-30 18:26 | 25.07826 | 121.22601 | 108 ft | 22 kts | 229° |
| 2026-04-30 18:26 | 25.07725 | 121.22473 | 107 ft | 22 kts | 229° |
| 2026-04-30 18:27 | 25.07524 | 121.22218 | 108 ft | 22 kts | 228° |
| 2026-04-30 18:27 | 25.07444 | 121.22116 | 107 ft | 11 kts | 230° |
| 2026-04-30 18:28 | 25.07350 | 121.22083 | 107 ft | 8 kts | 144° |
| 2026-04-30 18:28 | 25.07302 | 121.22126 | 108 ft | 10 kts | 139° |
| 2026-04-30 18:28 | 25.07187 | 121.22235 | 108 ft | 13 kts | 139° |
| 2026-04-30 18:29 | 25.07106 | 121.22311 | 107 ft | 17 kts | 139° |
| 2026-04-30 18:29 | 25.06796 | 121.22605 | 106 ft | 20 kts | 139° |
| 2026-04-30 18:30 | 25.06668 | 121.22723 | 106 ft | 10 kts | 152° |
| 2026-04-30 18:30 | 25.06552 | 121.22628 | 104 ft | 10 kts | 228° |
| 2026-04-30 18:31 | 25.06507 | 121.22573 | 106 ft | 10 kts | 229° |
| 2026-04-30 18:31 | 25.06419 | 121.22462 | 107 ft | 10 kts | 229° |
| 2026-04-30 18:32 | 25.06333 | 121.22350 | 106 ft | 10 kts | 229° |
| 2026-04-30 18:32 | 25.06289 | 121.22295 | 107 ft | 10 kts | 229° |
| 2026-04-30 18:32 | 25.06196 | 121.22262 | 105 ft | 7 kts | 143° |
| 2026-04-30 18:33 | 25.06189 | 121.22269 | 104 ft | 0 kts | 140° |
| 2026-04-30 18:33 | 25.06166 | 121.22290 | 104 ft | 5 kts | 140° |
| 2026-04-30 18:33 | 25.06134 | 121.22319 | 104 ft | 7 kts | 140° |
| 2026-04-30 18:34 | 25.06107 | 121.22357 | 103 ft | 6 kts | 105° |
| 2026-04-30 18:34 | 25.06127 | 121.22410 | 101 ft | 0 kts | 49° |
| 2026-04-30 18:35 | 25.06144 | 121.22431 | 103 ft | 14 kts | 49° |
| 2026-04-30 18:35 | 25.06323 | 121.22659 | 102 ft | 72 kts | 49° |
| 2026-04-30 18:36 | 25.07486 | 121.24139 | 171 ft | 166 kts | 50° |
| 2026-04-30 18:36 | 25.08244 | 121.25071 | 729 ft | 165 kts | 47° |
| 2026-04-30 18:36 | 25.09840 | 121.27066 | 1549 ft | 179 kts | 51° |
| 2026-04-30 18:37 | 25.10653 | 121.28144 | 1814 ft | 191 kts | 51° |
| 2026-04-30 18:37 | 25.11527 | 121.29317 | 1949 ft | 207 kts | 50° |
| 2026-04-30 18:37 | 25.12545 | 121.30542 | 2139 ft | 226 kts | 47° |
| 2026-04-30 18:37 | 25.13663 | 121.31837 | 2513 ft | 236 kts | 47° |
| 2026-04-30 18:38 | 25.14818 | 121.33169 | 3005 ft | 246 kts | 46° |
| 2026-04-30 18:38 | 25.16024 | 121.34556 | 3541 ft | 252 kts | 46° |
| 2026-04-30 18:38 | 25.17252 | 121.35970 | 4109 ft | 256 kts | 45° |
| 2026-04-30 18:38 | 25.18079 | 121.36925 | 4381 ft | 264 kts | 47° |
| 2026-04-30 18:39 | 25.19028 | 121.38687 | 4624 ft | 275 kts | 73° |
| 2026-04-30 18:39 | 25.19541 | 121.40745 | 5040 ft | 282 kts | 73° |
| 2026-04-30 18:39 | 25.20107 | 121.42848 | 5547 ft | 289 kts | 73° |
| 2026-04-30 18:39 | 25.20702 | 121.44989 | 6079 ft | 294 kts | 73° |
| 2026-04-30 18:40 | 25.21317 | 121.47157 | 6596 ft | 298 kts | 73° |
| 2026-04-30 18:40 | 25.21934 | 121.49356 | 7124 ft | 301 kts | 73° |
| 2026-04-30 18:40 | 25.22551 | 121.51575 | 7680 ft | 303 kts | 73° |
| 2026-04-30 18:40 | 25.23172 | 121.53801 | 8240 ft | 305 kts | 72° |
| 2026-04-30 18:41 | 25.23809 | 121.56059 | 8780 ft | 310 kts | 72° |
| 2026-04-30 18:41 | 25.24456 | 121.58347 | 9252 ft | 315 kts | 72° |
| 2026-04-30 18:41 | 25.25110 | 121.60663 | 9844 ft | 315 kts | 71° |
| 2026-04-30 18:41 | 25.25763 | 121.62979 | 10347 ft | 320 kts | 71° |
| 2026-04-30 18:42 | 25.26444 | 121.65392 | 10479 ft | 339 kts | 71° |
| 2026-04-30 18:42 | 25.27925 | 121.70641 | 10785 ft | 377 kts | 71° |
| 2026-04-30 18:42 | 25.28721 | 121.73469 | 10954 ft | 394 kts | 71° |
| 2026-04-30 18:45 | 25.37437 | 122.04646 | 16518 ft | 447 kts | 71° |
| 2026-04-30 18:45 | 25.38355 | 122.07944 | 17038 ft | 451 kts | 71° |
| 2026-04-30 18:45 | 25.39282 | 122.11281 | 17563 ft | 456 kts | 71° |
| 2026-04-30 18:46 | 25.40219 | 122.14651 | 18081 ft | 460 kts | 71° |
| 2026-04-30 18:46 | 25.41257 | 122.18006 | 18532 ft | 463 kts | 65° |
| 2026-04-30 18:46 | 25.42651 | 122.21224 | 18983 ft | 464 kts | 58° |
| 2026-04-30 18:46 | 25.44321 | 122.24275 | 19459 ft | 464 kts | 52° |
| 2026-04-30 18:47 | 25.46261 | 122.27129 | 19923 ft | 465 kts | 48° |
| 2026-04-30 18:47 | 25.48270 | 122.29945 | 20383 ft | 467 kts | 48° |
| 2026-04-30 18:47 | 25.50297 | 122.32773 | 20837 ft | 470 kts | 47° |
| 2026-04-30 18:47 | 25.52334 | 122.35621 | 21284 ft | 474 kts | 48° |
| 2026-04-30 18:48 | 25.54353 | 122.38460 | 21733 ft | 477 kts | 48° |
| 2026-04-30 18:48 | 25.56403 | 122.41358 | 22170 ft | 480 kts | 48° |
| 2026-04-30 18:48 | 25.58464 | 122.44286 | 22581 ft | 484 kts | 48° |
| 2026-04-30 18:48 | 25.60538 | 122.47239 | 22989 ft | 488 kts | 48° |
| 2026-04-30 18:49 | 25.62625 | 122.50217 | 23421 ft | 490 kts | 48° |
| 2026-04-30 18:49 | 25.64721 | 122.53211 | 23818 ft | 493 kts | 48° |
| 2026-04-30 18:49 | 25.66829 | 122.56223 | 24154 ft | 496 kts | 48° |
| 2026-04-30 18:49 | 25.68948 | 122.59254 | 24513 ft | 498 kts | 48° |
| 2026-04-30 18:50 | 25.71077 | 122.62300 | 24845 ft | 501 kts | 48° |
| 2026-04-30 18:50 | 25.73215 | 122.65359 | 25192 ft | 504 kts | 49° |
| 2026-04-30 18:50 | 25.75367 | 122.68441 | 25511 ft | 507 kts | 49° |
| 2026-04-30 18:50 | 25.77530 | 122.71541 | 25810 ft | 511 kts | 48° |
| 2026-04-30 18:51 | 25.79714 | 122.74671 | 26123 ft | 514 kts | 48° |
| 2026-04-30 18:51 | 25.81907 | 122.77818 | 26463 ft | 516 kts | 48° |
| 2026-04-30 18:51 | 25.84109 | 122.80980 | 26811 ft | 519 kts | 49° |
| 2026-04-30 18:51 | 25.86318 | 122.84154 | 27145 ft | 521 kts | 49° |
| 2026-04-30 18:52 | 25.88539 | 122.87348 | 27475 ft | 524 kts | 49° |
| 2026-04-30 18:52 | 25.90768 | 122.90555 | 27786 ft | 526 kts | 49° |
| 2026-04-30 18:52 | 25.93012 | 122.93785 | 28061 ft | 530 kts | 49° |
| 2026-04-30 18:52 | 25.95266 | 122.97032 | 28361 ft | 532 kts | 49° |
| 2026-04-30 18:53 | 25.97535 | 123.00305 | 28630 ft | 535 kts | 49° |
| 2026-04-30 18:53 | 25.99813 | 123.03591 | 28914 ft | 538 kts | 49° |
| 2026-04-30 18:53 | 26.02095 | 123.06887 | 29194 ft | 540 kts | 49° |
| 2026-04-30 18:53 | 26.04385 | 123.10196 | 29514 ft | 540 kts | 49° |
| 2026-04-30 18:54 | 26.06674 | 123.13507 | 29940 ft | 539 kts | 49° |
| 2026-04-30 18:54 | 26.08955 | 123.16810 | 30316 ft | 538 kts | 49° |
| 2026-04-30 18:54 | 26.11238 | 123.20116 | 30627 ft | 538 kts | 49° |
| 2026-04-30 18:54 | 26.13518 | 123.23421 | 30956 ft | 538 kts | 49° |
| 2026-04-30 18:55 | 26.15790 | 123.26716 | 31325 ft | 536 kts | 48° |
| 2026-04-30 18:55 | 26.20318 | 123.33290 | 32031 ft | 534 kts | 48° |
| 2026-04-30 18:55 | 26.22577 | 123.36573 | 32333 ft | 533 kts | 48° |
| 2026-04-30 18:56 | 26.27081 | 123.43125 | 32943 ft | 532 kts | 48° |
| 2026-04-30 18:56 | 26.29335 | 123.46405 | 33049 ft | 535 kts | 48° |
| 2026-04-30 18:57 | 26.36088 | 123.56255 | 33092 ft | 533 kts | 48° |
| 2026-04-30 18:57 | 26.40568 | 123.62805 | 33095 ft | 530 kts | 48° |
| 2026-04-30 18:58 | 26.47263 | 123.72602 | 33099 ft | 529 kts | 48° |
| 2026-04-30 18:59 | 26.53965 | 123.82432 | 33086 ft | 532 kts | 48° |
| 2026-04-30 19:00 | 26.62947 | 123.95645 | 33106 ft | 536 kts | 48° |
| 2026-04-30 19:01 | 26.72241 | 124.08666 | 33084 ft | 535 kts | 44° |
| 2026-04-30 19:02 | 26.79467 | 124.18181 | 33082 ft | 535 kts | 45° |
| 2026-04-30 19:03 | 26.88976 | 124.30986 | 33104 ft | 534 kts | 45° |
| 2026-04-30 19:04 | 26.98479 | 124.43813 | 33091 ft | 535 kts | 45° |
| 2026-04-30 19:05 | 27.08005 | 124.56652 | 33103 ft | 536 kts | 45° |
| 2026-04-30 19:06 | 27.17557 | 124.69566 | 33094 ft | 539 kts | 45° |
| 2026-04-30 19:06 | 27.24699 | 124.79249 | 33105 ft | 540 kts | 45° |
| 2026-04-30 19:07 | 27.31891 | 124.89023 | 33091 ft | 541 kts | 45° |
| 2026-04-30 19:08 | 27.41492 | 125.02097 | 33114 ft | 542 kts | 45° |
| 2026-04-30 19:09 | 27.48751 | 125.11882 | 33094 ft | 544 kts | 44° |
| 2026-04-30 19:09 | 27.53601 | 125.18424 | 33085 ft | 544 kts | 44° |
| 2026-04-30 19:10 | 27.63304 | 125.31567 | 33088 ft | 547 kts | 44° |
| 2026-04-30 19:11 | 27.70637 | 125.41531 | 33085 ft | 549 kts | 44° |
| 2026-04-30 19:12 | 27.75478 | 125.48121 | 33083 ft | 549 kts | 44° |
| 2026-04-30 19:12 | 27.80361 | 125.54781 | 33086 ft | 551 kts | 44° |
| 2026-04-30 19:13 | 27.90141 | 125.68143 | 33081 ft | 552 kts | 44° |
| 2026-04-30 19:14 | 27.95034 | 125.74846 | 33097 ft | 553 kts | 44° |
| 2026-04-30 19:14 | 27.99934 | 125.81569 | 33086 ft | 554 kts | 44° |
| 2026-04-30 19:15 | 28.04837 | 125.88307 | 33082 ft | 555 kts | 44° |
| 2026-04-30 19:15 | 28.12197 | 125.98440 | 33112 ft | 556 kts | 44° |
| 2026-04-30 19:16 | 28.17119 | 126.05228 | 33078 ft | 559 kts | 44° |
| 2026-04-30 19:17 | 28.24522 | 126.15462 | 33069 ft | 560 kts | 44° |
| 2026-04-30 19:17 | 28.31941 | 126.25742 | 33049 ft | 563 kts | 44° |
| 2026-04-30 19:18 | 28.39387 | 126.36085 | 33071 ft | 565 kts | 44° |
| 2026-04-30 19:19 | 28.44358 | 126.43006 | 33065 ft | 566 kts | 44° |
| 2026-04-30 19:19 | 28.51784 | 126.53365 | 33058 ft | 566 kts | 44° |
| 2026-04-30 19:20 | 28.56746 | 126.60300 | 33062 ft | 565 kts | 44° |
| 2026-04-30 19:21 | 28.64183 | 126.70715 | 33065 ft | 567 kts | 44° |
| 2026-04-30 19:22 | 28.74152 | 126.84715 | 33060 ft | 571 kts | 44° |
| 2026-04-30 19:23 | 28.89217 | 127.05966 | 33055 ft | 577 kts | 45° |
| 2026-04-30 19:24 | 28.96780 | 127.16677 | 33053 ft | 580 kts | 45° |